createdAt,value
2022-11-15T09:15:20.995Z,98064.00
2022-11-15T09:17:49.128Z,98053.00
2022-11-15T09:20:17.836Z,98060.00
2022-11-15T09:22:45.996Z,98061.00
2022-11-15T09:25:14.076Z,98066.00
2022-11-15T09:27:42.200Z,98057.00
2022-11-15T09:30:10.916Z,98063.00
2022-11-15T09:32:40.373Z,98051.00
2022-11-15T09:35:08.988Z,98060.00
2022-11-15T09:37:37.070Z,98053.00
2022-11-15T09:40:07.112Z,98064.00
2022-11-15T09:42:47.752Z,98055.00
2022-11-15T09:45:19.519Z,98051.00
2022-11-15T09:48:05.713Z,98053.00
2022-11-15T09:50:36.566Z,98052.00
2022-11-15T09:53:04.712Z,98055.00
2022-11-15T09:55:37.112Z,98039.00
2022-11-15T09:58:08.163Z,98036.00
2022-11-15T10:00:52.700Z,98040.00
2022-11-15T10:03:25.436Z,98031.00
2022-11-15T10:05:56.277Z,98025.00
2022-11-15T10:08:49.840Z,98031.00
2022-11-15T10:14:11.159Z,98021.00
2022-11-15T10:17:02.929Z,98015.00
2022-11-15T10:19:35.142Z,98016.00
2022-11-15T10:22:14.861Z,98007.00
2022-11-15T10:24:44.547Z,97992.00
2022-11-15T10:27:14.423Z,98001.00
2022-11-15T10:29:46.256Z,97988.00
2022-11-15T10:32:14.520Z,98000.00
2022-11-15T10:34:44.797Z,97977.00
2022-11-15T10:37:12.836Z,97981.00
2022-11-15T10:39:40.916Z,97982.00
2022-11-15T10:42:19.181Z,97973.00
2022-11-15T10:44:47.273Z,97966.00
2022-11-15T10:47:26.755Z,97978.00
2022-11-15T10:49:58.486Z,97963.00
2022-11-15T10:52:26.530Z,97959.00
2022-11-15T10:54:56.863Z,97964.00
2022-11-15T10:57:25.745Z,97955.00
2022-11-15T10:59:54.610Z,97956.00
2022-11-15T11:02:33.865Z,97952.00
2022-11-15T11:05:03.568Z,97948.00
2022-11-15T11:07:32.767Z,97947.00
2022-11-15T11:10:02.540Z,97952.00
2022-11-15T11:12:32.448Z,97950.00
2022-11-15T11:15:02.996Z,97940.00
2022-11-15T11:17:36.974Z,97938.00
2022-11-15T11:20:09.978Z,97935.00
2022-11-15T11:22:42.202Z,97933.00
2022-11-15T11:25:22.103Z,97922.00
2022-11-15T11:27:58.962Z,97915.00
2022-11-15T11:30:32.016Z,97910.00
2022-11-15T11:33:10.963Z,97911.00
2022-11-15T11:35:46.058Z,97905.00
2022-11-15T11:38:21.654Z,97926.00
2022-11-15T11:40:58.242Z,97918.00
2022-11-15T11:43:31.167Z,97910.00
2022-11-15T11:46:07.306Z,97910.00
2022-11-15T11:48:45.034Z,97909.00
2022-11-15T11:51:18.731Z,97911.00
2022-11-15T11:53:50.625Z,97894.00
2022-11-15T11:56:25.614Z,97899.00
2022-11-15T11:58:54.684Z,97890.00
2022-11-15T12:01:25.394Z,97878.00
2022-11-15T12:03:57.807Z,97902.00
2022-11-15T12:06:31.829Z,97890.00
2022-11-15T12:09:02.675Z,97901.00
2022-11-15T12:11:32.721Z,97889.00
2022-11-15T12:14:02.542Z,97886.00
2022-11-15T12:16:31.161Z,97884.00
2022-11-15T12:19:01.259Z,97884.00
2022-11-15T12:21:38.556Z,97882.00
2022-11-15T12:24:08.897Z,97869.00
2022-11-15T12:26:38.967Z,97874.00
2022-11-15T12:29:11.683Z,97877.00
2022-11-15T12:31:41.294Z,97864.00
2022-11-15T12:34:17.612Z,97861.00
2022-11-15T12:36:47.131Z,97865.00
2022-11-15T12:39:15.347Z,97862.00
2022-11-15T12:41:44.052Z,97861.00
2022-11-15T12:44:13.096Z,97867.00
2022-11-15T12:47:04.265Z,97859.00
2022-11-15T12:49:45.697Z,97864.00
2022-11-15T12:52:15.138Z,97859.00
2022-11-15T12:55:03.058Z,97868.00
2022-11-15T12:57:41.743Z,97861.00
2022-11-15T13:00:47.907Z,97851.00
2022-11-15T13:03:29.336Z,97857.00
2022-11-15T13:06:02.790Z,97846.00
2022-11-15T13:08:53.002Z,97845.00
2022-11-15T13:11:52.710Z,97831.00
2022-11-15T13:14:46.655Z,97835.00
2022-11-15T13:17:41.870Z,97842.00
2022-11-15T13:20:31.077Z,97832.00
2022-11-15T13:23:04.314Z,97817.00
2022-11-15T13:26:11.264Z,97812.00
2022-11-15T13:28:40.625Z,97799.00
2022-11-15T13:31:37.258Z,97797.00
2022-11-15T13:34:44.593Z,97792.00
2022-11-15T13:37:12.012Z,97798.00
2022-11-15T13:39:40.111Z,97780.00
2022-11-15T13:42:16.574Z,97786.00
2022-11-15T13:44:56.655Z,97783.00
2022-11-15T13:47:24.743Z,97789.00
2022-11-15T13:49:52.883Z,97784.00
2022-11-15T13:52:20.912Z,97775.00
2022-11-15T13:54:52.903Z,97776.00
2022-11-15T13:57:23.305Z,97772.00
2022-11-15T13:59:52.925Z,97768.00
2022-11-15T14:02:21.763Z,97758.00
2022-11-15T14:04:52.610Z,97761.00
2022-11-15T14:07:21.466Z,97760.00
2022-11-15T14:09:52.664Z,97770.00
2022-11-15T14:12:30.798Z,97762.00
2022-11-15T14:14:58.999Z,97758.00
2022-11-15T14:17:38.407Z,97765.00
2022-11-15T14:20:22.099Z,97753.00
2022-11-15T14:22:53.988Z,97766.00
2022-11-15T14:25:22.914Z,97744.00
2022-11-15T14:28:12.464Z,97740.00
2022-11-15T14:30:40.816Z,97740.00
2022-11-15T14:33:21.288Z,97732.00
2022-11-15T14:35:49.361Z,97738.00
2022-11-15T14:38:17.408Z,97736.00
2022-11-15T14:40:45.780Z,97737.00
2022-11-15T14:43:15.387Z,97731.00
2022-11-15T14:45:43.727Z,97725.00
2022-11-15T14:48:11.821Z,97727.00
2022-11-15T14:50:40.037Z,97724.00
2022-11-15T14:53:09.036Z,97722.00
2022-11-15T14:55:37.443Z,97706.00
2022-11-15T14:58:05.640Z,97709.00
2022-11-15T15:00:35.757Z,97714.00
2022-11-15T15:03:06.875Z,97705.00
2022-11-15T15:05:36.143Z,97695.00
2022-11-15T15:08:04.420Z,97690.00
2022-11-15T15:10:40.159Z,97697.00
2022-11-15T15:13:12.993Z,97689.00
2022-11-15T15:23:48.638Z,97679.00
2022-11-15T15:26:16.966Z,97678.00
2022-11-15T15:28:45.083Z,97674.00
2022-11-15T15:31:14.554Z,97667.00
2022-11-15T15:33:42.779Z,97672.00
2022-11-15T15:36:12.740Z,97678.00
2022-11-15T15:38:42.360Z,97686.00
2022-11-15T15:41:16.744Z,97690.00
2022-11-15T15:43:44.929Z,97685.00
2022-11-15T15:46:14.829Z,97684.00
2022-11-15T15:48:43.228Z,97681.00
2022-11-15T15:51:19.638Z,97677.00
2022-11-15T15:53:48.696Z,97660.00
2022-11-15T15:56:18.220Z,97673.00
2022-11-15T15:58:46.433Z,97674.00
2022-11-15T16:01:14.621Z,97673.00
2022-11-15T16:03:42.781Z,97680.00
2022-11-15T16:06:34.676Z,97672.00
2022-11-15T16:09:14.638Z,97669.00
2022-11-15T16:11:46.284Z,97676.00
2022-11-15T16:14:14.623Z,97663.00
2022-11-15T16:16:42.710Z,97659.00
2022-11-15T16:19:11.223Z,97669.00
2022-11-15T16:21:39.389Z,97670.00
2022-11-15T16:24:07.581Z,97666.00
2022-11-15T16:26:35.721Z,97667.00
2022-11-15T16:29:10.152Z,97653.00
2022-11-15T16:31:38.392Z,97656.00
2022-11-15T16:34:07.281Z,97648.00
2022-11-15T16:36:37.010Z,97655.00
2022-11-15T16:39:05.955Z,97642.00
2022-11-15T16:41:34.269Z,97656.00
2022-11-15T16:44:02.434Z,97645.00
2022-11-15T16:46:31.996Z,97644.00
2022-11-15T16:49:00.041Z,97645.00
2022-11-15T16:51:28.121Z,97642.00
2022-11-15T16:53:56.225Z,97642.00
2022-11-15T16:56:28.469Z,97637.00
2022-11-15T16:58:58.790Z,97641.00
2022-11-15T17:01:29.095Z,97641.00
2022-11-15T17:03:59.116Z,97613.00
2022-11-15T17:06:27.525Z,97625.00
2022-11-15T17:08:56.688Z,97628.00
2022-11-15T17:11:24.954Z,97628.00
2022-11-15T17:13:53.239Z,97641.00
2022-11-15T17:16:24.465Z,97631.00
2022-11-15T17:18:52.665Z,97624.00
2022-11-15T17:21:22.767Z,97616.00
2022-11-15T17:23:50.809Z,97612.00
2022-11-15T17:26:37.787Z,97601.00
2022-11-15T17:29:08.791Z,97594.00
2022-11-15T17:31:36.950Z,97589.00
2022-11-15T17:34:05.428Z,97590.00
2022-11-15T17:36:34.909Z,97597.00
2022-11-15T17:39:03.108Z,97596.00
2022-11-15T17:41:31.232Z,97593.00
2022-11-15T17:44:00.446Z,97576.00
2022-11-15T17:46:31.376Z,97585.00
2022-11-15T17:48:59.507Z,97565.00
2022-11-15T17:51:27.576Z,97577.00
2022-11-15T17:53:56.986Z,97573.00
2022-11-15T17:56:26.161Z,97569.00
2022-11-15T17:58:55.355Z,97569.00
2022-11-15T18:01:24.249Z,97557.00
2022-11-15T18:03:52.502Z,97560.00
2022-11-15T18:06:21.283Z,97561.00
2022-11-15T18:08:50.500Z,97567.00
2022-11-15T18:11:21.969Z,97568.00
2022-11-15T18:13:52.516Z,97555.00
2022-11-15T18:16:21.820Z,97540.00
2022-11-15T18:18:50.297Z,97531.00
2022-11-15T18:21:20.136Z,97537.00
2022-11-15T18:23:48.796Z,97534.00
2022-11-15T18:26:20.131Z,97536.00
2022-11-15T18:28:54.578Z,97528.00
2022-11-15T18:31:23.765Z,97525.00
2022-11-15T18:33:52.274Z,97530.00
2022-11-15T18:36:21.179Z,97540.00
2022-11-15T18:38:49.416Z,97536.00
2022-11-15T18:41:20.546Z,97544.00
2022-11-15T18:43:50.273Z,97546.00
2022-11-15T18:46:21.387Z,97545.00
2022-11-15T18:48:51.403Z,97546.00
2022-11-15T18:51:20.819Z,97533.00
2022-11-15T18:53:50.784Z,97534.00
2022-11-15T18:56:19.643Z,97530.00
2022-11-15T18:58:48.897Z,97522.00
2022-11-15T19:01:20.119Z,97521.00
2022-11-15T19:03:49.827Z,97510.00
2022-11-15T19:06:18.898Z,97516.00
2022-11-15T19:08:48.195Z,97528.00
2022-11-15T19:11:17.190Z,97521.00
2022-11-15T19:13:46.911Z,97515.00
2022-11-15T19:16:16.759Z,97519.00
2022-11-15T19:18:46.252Z,97510.00
2022-11-15T19:21:15.961Z,97505.00
2022-11-15T19:23:45.493Z,97515.00
2022-11-15T19:26:14.191Z,97519.00
2022-11-15T19:28:45.847Z,97515.00
2022-11-15T19:31:16.075Z,97520.00
2022-11-15T19:33:45.988Z,97516.00
2022-11-15T19:36:16.033Z,97502.00
2022-11-15T19:38:44.286Z,97510.00
2022-11-15T19:41:13.800Z,97505.00
2022-11-15T19:43:42.432Z,97501.00
2022-11-15T19:46:11.630Z,97512.00
2022-11-15T19:48:39.816Z,97498.00
2022-11-15T19:51:11.616Z,97495.00
2022-11-15T19:53:40.345Z,97500.00
2022-11-15T19:56:09.455Z,97492.00
2022-11-15T19:58:37.567Z,97481.00
2022-11-15T20:01:06.983Z,97472.00
2022-11-15T20:03:36.806Z,97478.00
2022-11-15T20:06:05.610Z,97474.00
2022-11-15T20:08:35.976Z,97470.00
2022-11-15T20:11:04.841Z,97479.00
2022-11-15T20:13:33.178Z,97473.00
2022-11-15T20:16:01.351Z,97471.00
2022-11-15T20:18:29.912Z,97478.00
2022-11-15T20:20:59.144Z,97483.00
2022-11-15T20:23:27.346Z,97466.00
2022-11-15T20:25:56.831Z,97457.00
2022-11-15T20:28:28.481Z,97490.00
2022-11-15T20:30:57.403Z,97478.00
2022-11-15T20:33:25.760Z,97489.00
2022-11-15T20:36:04.025Z,97479.00
2022-11-15T20:38:32.579Z,97481.00
2022-11-15T20:41:02.452Z,97483.00
2022-11-15T20:43:30.840Z,97481.00
2022-11-15T20:45:59.010Z,97475.00
2022-11-15T20:48:27.324Z,97478.00
2022-11-15T20:51:04.557Z,97471.00
2022-11-15T20:53:33.793Z,97466.00
2022-11-15T20:56:07.629Z,97472.00
2022-11-15T20:58:39.038Z,97471.00
2022-11-15T21:01:19.867Z,97468.00
2022-11-15T21:03:50.798Z,97464.00
2022-11-15T21:06:23.355Z,97457.00
2022-11-15T21:09:09.025Z,97462.00
2022-11-15T21:12:01.063Z,97467.00
2022-11-15T21:14:31.341Z,97463.00
2022-11-15T21:17:02.343Z,97460.00
2022-11-15T21:19:35.630Z,97457.00
2022-11-15T21:22:05.461Z,97444.00
2022-11-15T21:24:33.627Z,97452.00
2022-11-15T21:27:08.161Z,97446.00
2022-11-15T21:29:39.148Z,97439.00
2022-11-15T21:32:08.252Z,97444.00
2022-11-15T21:34:39.140Z,97430.00
2022-11-15T21:37:07.464Z,97438.00
2022-11-15T21:39:36.348Z,97425.00
2022-11-15T21:42:24.287Z,97415.00
2022-11-15T21:44:52.385Z,97415.00
2022-11-15T21:47:21.897Z,97413.00
2022-11-15T21:49:49.989Z,97422.00
2022-11-15T21:52:18.061Z,97412.00
2022-11-15T21:54:48.250Z,97409.00
2022-11-15T21:57:19.006Z,97414.00
2022-11-15T22:00:05.592Z,97416.00
2022-11-15T22:02:33.637Z,97403.00
2022-11-15T22:05:04.573Z,97394.00
2022-11-15T22:07:34.758Z,97400.00
2022-11-15T22:10:02.813Z,97400.00
2022-11-15T22:12:34.721Z,97408.00
2022-11-15T22:15:05.184Z,97397.00
2022-11-15T22:17:47.163Z,97392.00
2022-11-15T22:20:42.931Z,97387.00
2022-11-15T22:23:06.556Z,97378.00
2022-11-15T22:25:40.421Z,97366.00
2022-11-15T22:28:09.915Z,97370.00
2022-11-15T22:30:43.514Z,97373.00
2022-11-15T22:33:14.006Z,97367.00
2022-11-15T22:35:45.513Z,97372.00
2022-11-15T22:38:16.860Z,97361.00
2022-11-15T22:40:45.133Z,97351.00
2022-11-15T22:43:27.010Z,97349.00
2022-11-15T22:45:55.238Z,97351.00
2022-11-15T22:48:24.533Z,97351.00
2022-11-15T22:50:52.682Z,97342.00
2022-11-15T22:53:20.894Z,97336.00
2022-11-15T22:55:52.835Z,97332.00
2022-11-15T22:58:22.572Z,97348.00
2022-11-15T23:00:51.125Z,97336.00
2022-11-15T23:03:19.957Z,97335.00
2022-11-15T23:05:48.260Z,97339.00
2022-11-15T23:08:16.532Z,97325.00
2022-11-15T23:11:02.379Z,97329.00
2022-11-15T23:13:32.544Z,97320.00
2022-11-15T23:16:23.607Z,97313.00
2022-11-15T23:18:52.359Z,97305.00
2022-11-15T23:21:41.808Z,97296.00
2022-11-15T23:24:09.675Z,97296.00
2022-11-15T23:26:38.313Z,97300.00
2022-11-15T23:29:09.345Z,97295.00
2022-11-15T23:32:01.642Z,97290.00
2022-11-15T23:34:31.040Z,97288.00
2022-11-15T23:36:59.335Z,97290.00
2022-11-15T23:39:27.565Z,97295.00
2022-11-15T23:41:55.686Z,97286.00
2022-11-15T23:44:25.382Z,97284.00
2022-11-15T23:46:54.027Z,97277.00
2022-11-15T23:49:22.254Z,97280.00
2022-11-15T23:51:50.466Z,97280.00
2022-11-15T23:54:18.592Z,97275.00
2022-11-15T23:56:46.839Z,97281.00
2022-11-15T23:59:15.075Z,97280.00
